sensor_id;sensor_type;location;lat;lon;timestamp;pressure;altitude;pressure_sealevel;temperature;humidity
21086;BME280;34247;50.064;19.970;2023-02-10T00:00:44;101006.53;;;-0.46;64.35
21086;BME280;34247;50.064;19.970;2023-02-10T00:02:00;101006.53;;;-0.49;64.44
21086;BME280;34247;50.064;19.970;2023-02-10T00:03:14;101008.25;;;-0.56;64.65
21086;BME280;34247;50.064;19.970;2023-02-10T00:04:21;100993.44;;;-0.60;64.79
21086;BME280;34247;50.064;19.970;2023-02-10T00:05:26;101016.06;;;-0.51;64.51
21086;BME280;34247;50.064;19.970;2023-02-10T00:06:33;101010.84;;;-0.52;64.42
21086;BME280;34247;50.064;19.970;2023-02-10T00:07:38;101015.22;;;-0.51;64.49
21086;BME280;34247;50.064;19.970;2023-02-10T00:08:51;101001.25;;;-0.58;64.13
21086;BME280;34247;50.064;19.970;2023-02-10T00:09:57;101008.22;;;-0.60;64.21
21086;BME280;34247;50.064;19.970;2023-02-10T00:11:11;101010.84;;;-0.52;63.94
21086;BME280;34247;50.064;19.970;2023-02-10T00:12:16;101010.00;;;-0.53;64.23
21086;BME280;34247;50.064;19.970;2023-02-10T00:13:21;101002.16;;;-0.58;64.21
21086;BME280;34247;50.064;19.970;2023-02-10T00:14:25;101007.38;;;-0.54;64.07
21086;BME280;34247;50.064;19.970;2023-02-10T00:15:31;101004.78;;;-0.56;64.03
21086;BME280;34247;50.064;19.970;2023-02-10T00:16:35;101003.03;;;-0.54;64.06
21086;BME280;34247;50.064;19.970;2023-02-10T00:17:39;100996.91;;;-0.59;63.97
21086;BME280;34247;50.064;19.970;2023-02-10T00:18:46;100996.03;;;-0.60;63.95
21086;BME280;34247;50.064;19.970;2023-02-10T00:19:50;101004.78;;;-0.56;63.88
21086;BME280;34247;50.064;19.970;2023-02-10T00:20:54;101010.00;;;-0.56;63.82
21086;BME280;34247;50.064;19.970;2023-02-10T00:22:01;100993.41;;;-0.72;63.92
21086;BME280;34247;50.064;19.970;2023-02-10T00:23:13;101013.44;;;-0.63;63.97
21086;BME280;34247;50.064;19.970;2023-02-10T00:24:18;101002.97;;;-0.69;63.92
21086;BME280;34247;50.064;19.970;2023-02-10T00:25:22;101019.53;;;-0.63;64.12
21086;BME280;34247;50.064;19.970;2023-02-10T00:26:26;101020.41;;;-0.61;64.07
21086;BME280;34247;50.064;19.970;2023-02-10T00:27:36;101024.75;;;-0.64;63.82
21086;BME280;34247;50.064;19.970;2023-02-10T00:28:40;101016.91;;;-0.63;64.05
21086;BME280;34247;50.064;19.970;2023-02-10T00:29:47;101028.19;;;-0.70;64.19
21086;BME280;34247;50.064;19.970;2023-02-10T00:30:53;101028.19;;;-0.71;63.86
21086;BME280;34247;50.064;19.970;2023-02-10T00:32:00;101021.22;;;-0.69;63.94
21086;BME280;34247;50.064;19.970;2023-02-10T00:33:05;101019.50;;;-0.66;64.02
21086;BME280;34247;50.064;19.970;2023-02-10T00:34:17;101011.66;;;-0.69;63.89
21086;BME280;34247;50.064;19.970;2023-02-10T00:35:24;101003.81;;;-0.78;63.68
21086;BME280;34247;50.064;19.970;2023-02-10T00:36:30;101020.34;;;-0.71;63.98
21086;BME280;34247;50.064;19.970;2023-02-10T00:37:34;101022.09;;;-0.70;63.80
21086;BME280;34247;50.064;19.970;2023-02-10T00:38:40;101028.13;;;-0.76;63.80
21086;BME280;34247;50.064;19.970;2023-02-10T00:39:46;101034.25;;;-0.72;63.86
21086;BME280;34247;50.064;19.970;2023-02-10T00:40:51;101015.97;;;-0.77;63.83
21086;BME280;34247;50.064;19.970;2023-02-10T00:41:58;101024.66;;;-0.75;63.51
21086;BME280;34247;50.064;19.970;2023-02-10T00:43:02;101009.88;;;-0.77;63.55
21086;BME280;34247;50.064;19.970;2023-02-10T00:44:12;101023.84;;;-0.71;63.67
21086;BME280;34247;50.064;19.970;2023-02-10T00:45:17;101018.56;;;-0.78;63.41
21086;BME280;34247;50.064;19.970;2023-02-10T00:46:22;101010.75;;;-0.78;63.67
21086;BME280;34247;50.064;19.970;2023-02-10T00:47:26;101029.88;;;-0.75;63.54
21086;BME280;34247;50.064;19.970;2023-02-10T00:48:31;101033.41;;;-0.68;63.63
21086;BME280;34247;50.064;19.970;2023-02-10T00:49:35;101032.53;;;-0.67;63.60
21086;BME280;34247;50.064;19.970;2023-02-10T00:50:39;101032.53;;;-0.67;63.46
21086;BME280;34247;50.064;19.970;2023-02-10T00:51:44;101035.09;;;-0.73;63.68
21086;BME280;34247;50.064;19.970;2023-02-10T00:52:48;101035.97;;;-0.73;63.43
21086;BME280;34247;50.064;19.970;2023-02-10T00:53:52;101025.53;;;-0.77;63.46
21086;BME280;34247;50.064;19.970;2023-02-10T00:54:56;101035.09;;;-0.79;63.66
21086;BME280;34247;50.064;19.970;2023-02-10T00:56:06;101040.31;;;-0.79;63.87
21086;BME280;34247;50.064;19.970;2023-02-10T00:57:10;101046.34;;;-0.84;64.26
21086;BME280;34247;50.064;19.970;2023-02-10T00:58:14;101044.63;;;-0.85;64.22
21086;BME280;34247;50.064;19.970;2023-02-10T00:59:20;101035.06;;;-0.86;64.38
21086;BME280;34247;50.064;19.970;2023-02-10T01:00:23;101031.53;;;-0.88;64.45
21086;BME280;34247;50.064;19.970;2023-02-10T01:01:27;101039.34;;;-0.91;64.43
21086;BME280;34247;50.064;19.970;2023-02-10T01:02:35;101034.13;;;-0.92;64.56
21086;BME280;34247;50.064;19.970;2023-02-10T01:03:39;101031.50;;;-0.95;64.56
21086;BME280;34247;50.064;19.970;2023-02-10T01:04:43;101035.84;;;-0.96;64.50
21086;BME280;34247;50.064;19.970;2023-02-10T01:05:48;101028.00;;;-0.96;64.57
21086;BME280;34247;50.064;19.970;2023-02-10T01:06:52;101024.53;;;-0.95;64.59
21086;BME280;34247;50.064;19.970;2023-02-10T01:07:57;101020.16;;;-1.02;64.63
21086;BME280;34247;50.064;19.970;2023-02-10T01:09:03;101021.06;;;-1.00;64.69
21086;BME280;34247;50.064;19.970;2023-02-10T01:10:16;101021.06;;;-0.97;64.39
21086;BME280;34247;50.064;19.970;2023-02-10T01:11:20;101016.72;;;-0.98;64.35
21086;BME280;34247;50.064;19.970;2023-02-10T01:12:24;101013.25;;;-1.00;64.25
21086;BME280;34247;50.064;19.970;2023-02-10T01:13:29;101013.25;;;-0.98;64.00
21086;BME280;34247;50.064;19.970;2023-02-10T01:14:38;101011.50;;;-0.99;64.15
21086;BME280;34247;50.064;19.970;2023-02-10T01:15:46;101013.25;;;-1.00;64.02
21086;BME280;34247;50.064;19.970;2023-02-10T01:16:50;101014.09;;;-1.01;64.02
21086;BME280;34247;50.064;19.970;2023-02-10T01:18:03;101014.97;;;-1.00;64.11
21086;BME280;34247;50.064;19.970;2023-02-10T01:19:16;101003.66;;;-1.02;63.79
21086;BME280;34247;50.064;19.970;2023-02-10T01:20:21;101001.84;;;-1.11;63.89
21086;BME280;34247;50.064;19.970;2023-02-10T01:21:30;101004.47;;;-1.11;63.81
21086;BME280;34247;50.064;19.970;2023-02-10T01:22:44;101021.00;;;-1.06;63.97
21086;BME280;34247;50.064;19.970;2023-02-10T01:24:01;101014.94;;;-1.08;64.02
21086;BME280;34247;50.064;19.970;2023-02-10T01:25:09;101010.53;;;-1.11;63.93
21086;BME280;34247;50.064;19.970;2023-02-10T01:26:28;101020.16;;;-1.06;64.00
21086;BME280;34247;50.064;19.970;2023-02-10T01:27:33;100990.50;;;-1.18;63.63
21086;BME280;34247;50.064;19.970;2023-02-10T01:28:50;101013.16;;;-1.11;63.89
21086;BME280;34247;50.064;19.970;2023-02-10T01:30:14;101001.84;;;-1.09;63.81
21086;BME280;34247;50.064;19.970;2023-02-10T01:31:27;101009.72;;;-1.08;64.01
21086;BME280;34247;50.064;19.970;2023-02-10T01:32:33;101006.25;;;-1.05;63.42
21086;BME280;34247;50.064;19.970;2023-02-10T01:33:42;100993.16;;;-1.15;63.51
21086;BME280;34247;50.064;19.970;2023-02-10T01:34:49;100994.03;;;-1.11;63.57
21086;BME280;34247;50.064;19.970;2023-02-10T01:35:53;100990.56;;;-1.10;63.52
21086;BME280;34247;50.064;19.970;2023-02-10T01:37:01;100987.97;;;-1.10;63.94
21086;BME280;34247;50.064;19.970;2023-02-10T01:38:09;100988.88;;;-1.08;63.83
21086;BME280;34247;50.064;19.970;2023-02-10T01:39:13;100986.25;;;-1.08;63.58
21086;BME280;34247;50.064;19.970;2023-02-10T01:40:24;100992.31;;;-1.09;63.63
21086;BME280;34247;50.064;19.970;2023-02-10T01:41:30;100991.44;;;-1.11;63.45
21086;BME280;34247;50.064;19.970;2023-02-10T01:42:34;100990.56;;;-1.12;63.56
21086;BME280;34247;50.064;19.970;2023-02-10T01:44:04;100995.81;;;-1.08;63.77
21086;BME280;34247;50.064;19.970;2023-02-10T01:45:39;100991.44;;;-1.11;63.58
21086;BME280;34247;50.064;19.970;2023-02-10T01:46:46;100994.84;;;-1.23;63.66
21086;BME280;34247;50.064;19.970;2023-02-10T01:47:55;100985.28;;;-1.22;63.66
21086;BME280;34247;50.064;19.970;2023-02-10T01:49:25;100977.44;;;-1.25;63.66
21086;BME280;34247;50.064;19.970;2023-02-10T01:50:50;100983.47;;;-1.31;63.82
21086;BME280;34247;50.064;19.970;2023-02-10T01:53:21;100990.47;;;-1.28;64.01
21086;BME280;34247;50.064;19.970;2023-02-10T01:55:20;100995.66;;;-1.28;64.06
21086;BME280;34247;50.064;19.970;2023-02-10T01:57:43;100990.47;;;-1.30;63.88
21086;BME280;34247;50.064;19.970;2023-02-10T01:58:56;100987.81;;;-1.33;63.82
21086;BME280;34247;50.064;19.970;2023-02-10T02:00:20;100985.25;;;-1.30;63.71
21086;BME280;34247;50.064;19.970;2023-02-10T02:01:28;100983.47;;;-1.31;63.69
21086;BME280;34247;50.064;19.970;2023-02-10T02:03:05;100983.53;;;-1.25;63.64
21086;BME280;34247;50.064;19.970;2023-02-10T02:05:04;100986.97;;;-1.30;63.75
21086;BME280;34247;50.064;19.970;2023-02-10T02:06:43;100976.50;;;-1.36;63.37
21086;BME280;34247;50.064;19.970;2023-02-10T02:09:07;100986.88;;;-1.43;63.31
21086;BME280;34247;50.064;19.970;2023-02-10T02:16:09;100979.13;;;-1.33;62.86
21086;BME280;34247;50.064;19.970;2023-02-10T02:24:45;100964.38;;;-1.31;62.48
21086;BME280;34247;50.064;19.970;2023-02-10T02:28:37;100962.66;;;-1.26;62.35
21086;BME280;34247;50.064;19.970;2023-02-10T02:32:22;100966.16;;;-1.27;62.51
21086;BME280;34247;50.064;19.970;2023-02-10T02:34:02;100969.59;;;-1.30;62.44
21086;BME280;34247;50.064;19.970;2023-02-10T02:35:23;100965.28;;;-1.29;62.55
21086;BME280;34247;50.064;19.970;2023-02-10T02:38:46;100956.59;;;-1.27;62.35
21086;BME280;34247;50.064;19.970;2023-02-10T02:40:53;100956.59;;;-1.27;62.41
21086;BME280;34247;50.064;19.970;2023-02-10T02:43:15;100957.41;;;-1.32;62.46
21086;BME280;34247;50.064;19.970;2023-02-10T02:44:24;100953.09;;;-1.30;62.50
21086;BME280;34247;50.064;19.970;2023-02-10T02:48:26;100954.81;;;-1.32;62.73
21086;BME280;34247;50.064;19.970;2023-02-10T02:50:33;100959.16;;;-1.31;62.55
21086;BME280;34247;50.064;19.970;2023-02-10T02:52:14;100958.28;;;-1.32;62.26
21086;BME280;34247;50.064;19.970;2023-02-10T02:55:03;100948.72;;;-1.37;62.60
21086;BME280;34247;50.064;19.970;2023-02-10T03:01:48;100959.97;;;-1.42;62.89
21086;BME280;34247;50.064;19.970;2023-02-10T03:03:19;100956.53;;;-1.37;62.82
21086;BME280;34247;50.064;19.970;2023-02-10T03:04:37;100957.38;;;-1.39;62.66
21086;BME280;34247;50.064;19.970;2023-02-10T03:06:30;100957.41;;;-1.34;62.70
21086;BME280;34247;50.064;19.970;2023-02-10T03:09:37;100957.34;;;-1.43;62.72
21086;BME280;34247;50.064;19.970;2023-02-10T03:14:08;100964.25;;;-1.45;63.18
21086;BME280;34247;50.064;19.970;2023-02-10T03:15:28;100964.31;;;-1.44;63.07
21086;BME280;34247;50.064;19.970;2023-02-10T03:17:45;100962.53;;;-1.48;62.82
21086;BME280;34247;50.064;19.970;2023-02-10T03:19:18;100952.06;;;-1.52;63.44
21086;BME280;34247;50.064;19.970;2023-02-10T03:21:03;100959.09;;;-1.44;63.19
21086;BME280;34247;50.064;19.970;2023-02-10T03:22:34;100957.34;;;-1.42;62.86
21086;BME280;34247;50.064;19.970;2023-02-10T03:23:45;100956.50;;;-1.42;62.68
21086;BME280;34247;50.064;19.970;2023-02-10T03:24:56;100961.75;;;-1.37;62.64
21086;BME280;34247;50.064;19.970;2023-02-10T03:26:35;100959.09;;;-1.41;62.73
21086;BME280;34247;50.064;19.970;2023-02-10T03:27:45;100969.56;;;-1.34;62.60
21086;BME280;34247;50.064;19.970;2023-02-10T03:29:33;100962.63;;;-1.35;62.72
21086;BME280;34247;50.064;19.970;2023-02-10T03:31:25;100967.78;;;-1.45;63.15
21086;BME280;34247;50.064;19.970;2023-02-10T03:33:21;100961.69;;;-1.44;62.83
21086;BME280;34247;50.064;19.970;2023-02-10T03:35:08;100971.31;;;-1.36;63.09
21086;BME280;34247;50.064;19.970;2023-02-10T03:36:53;100969.56;;;-1.36;62.72
21086;BME280;34247;50.064;19.970;2023-02-10T03:38:43;100958.22;;;-1.41;62.89
21086;BME280;34247;50.064;19.970;2023-02-10T03:40:19;100970.44;;;-1.35;62.98
21086;BME280;34247;50.064;19.970;2023-02-10T03:41:28;100965.22;;;-1.32;63.05
21086;BME280;34247;50.064;19.970;2023-02-10T03:42:32;100947.84;;;-1.35;62.78
21086;BME280;34247;50.064;19.970;2023-02-10T03:43:41;100958.31;;;-1.29;62.82
21086;BME280;34247;50.064;19.970;2023-02-10T03:44:49;100958.31;;;-1.29;62.62
21086;BME280;34247;50.064;19.970;2023-02-10T03:46:08;100964.44;;;-1.22;62.75
21086;BME280;34247;50.064;19.970;2023-02-10T03:47:13;100944.38;;;-1.32;62.62
21086;BME280;34247;50.064;19.970;2023-02-10T03:48:18;100959.19;;;-1.28;62.41
21086;BME280;34247;50.064;19.970;2023-02-10T03:49:23;100953.94;;;-1.31;62.70
21086;BME280;34247;50.064;19.970;2023-02-10T03:50:35;100971.41;;;-1.21;62.65
21086;BME280;34247;50.064;19.970;2023-02-10T03:52:57;100967.94;;;-1.20;62.54
21086;BME280;34247;50.064;19.970;2023-02-10T03:57:41;100973.09;;;-1.23;62.50
21086;BME280;34247;50.064;19.970;2023-02-10T03:58:56;100976.63;;;-1.21;62.68
21086;BME280;34247;50.064;19.970;2023-02-10T04:00:29;100964.41;;;-1.25;62.46
21086;BME280;34247;50.064;19.970;2023-02-10T04:01:51;100953.97;;;-1.28;62.20
21086;BME280;34247;50.064;19.970;2023-02-10T04:03:03;100969.63;;;-1.25;62.42
21086;BME280;34247;50.064;19.970;2023-02-10T04:04:14;100971.44;;;-1.15;62.16
21086;BME280;34247;50.064;19.970;2023-02-10T04:05:22;100958.38;;;-1.20;62.30
21086;BME280;34247;50.064;19.970;2023-02-10T04:06:33;100959.25;;;-1.22;62.40
21086;BME280;34247;50.064;19.970;2023-02-10T04:07:50;100970.53;;;-1.20;62.48
21086;BME280;34247;50.064;19.970;2023-02-10T04:09:04;100976.66;;;-1.12;62.53
21086;BME280;34247;50.064;19.970;2023-02-10T04:10:32;100987.94;;;-1.13;62.46
21086;BME280;34247;50.064;19.970;2023-02-10T04:11:44;100972.28;;;-1.19;62.50
21086;BME280;34247;50.064;19.970;2023-02-10T04:12:58;100966.19;;;-1.21;62.46
21086;BME280;34247;50.064;19.970;2023-02-10T04:14:06;100972.28;;;-1.16;62.52
21086;BME280;34247;50.064;19.970;2023-02-10T04:15:11;100984.47;;;-1.12;62.33
21086;BME280;34247;50.064;19.970;2023-02-10T04:16:19;100974.88;;;-1.16;62.63
21086;BME280;34247;50.064;19.970;2023-02-10T04:17:29;100980.13;;;-1.15;62.28
21086;BME280;34247;50.064;19.970;2023-02-10T04:18:35;100968.78;;;-1.21;62.28
21086;BME280;34247;50.064;19.970;2023-02-10T04:19:45;100966.19;;;-1.21;62.37
21086;BME280;34247;50.064;19.970;2023-02-10T04:20:50;100969.66;;;-1.19;62.71
21086;BME280;34247;50.064;19.970;2023-02-10T04:21:55;100978.34;;;-1.17;62.58
21086;BME280;34247;50.064;19.970;2023-02-10T04:22:59;100978.34;;;-1.22;62.68
21086;BME280;34247;50.064;19.970;2023-02-10T04:24:11;100979.22;;;-1.18;62.55
21086;BME280;34247;50.064;19.970;2023-02-10T04:25:15;100980.94;;;-1.22;62.60
21086;BME280;34247;50.064;19.970;2023-02-10T04:26:22;100987.91;;;-1.18;62.41
21086;BME280;34247;50.064;19.970;2023-02-10T04:27:29;100973.97;;;-1.26;62.38
21086;BME280;34247;50.064;19.970;2023-02-10T04:28:35;100972.22;;;-1.25;62.40
21086;BME280;34247;50.064;19.970;2023-02-10T04:29:40;100972.22;;;-1.24;62.15
21086;BME280;34247;50.064;19.970;2023-02-10T04:30:57;100980.09;;;-1.22;62.52
21086;BME280;34247;50.064;19.970;2023-02-10T04:32:02;100973.09;;;-1.26;62.28
21086;BME280;34247;50.064;19.970;2023-02-10T04:33:12;100981.72;;;-1.32;62.39
21086;BME280;34247;50.064;19.970;2023-02-10T04:34:20;100972.13;;;-1.39;62.45
21086;BME280;34247;50.064;19.970;2023-02-10T04:35:24;100974.78;;;-1.37;62.86
21086;BME280;34247;50.064;19.970;2023-02-10T04:36:29;100970.44;;;-1.37;62.63
21086;BME280;34247;50.064;19.970;2023-02-10T04:37:35;100991.28;;;-1.35;62.38
21086;BME280;34247;50.064;19.970;2023-02-10T04:38:40;100972.97;;;-1.45;62.77
21086;BME280;34247;50.064;19.970;2023-02-10T04:39:45;100975.59;;;-1.43;62.88
21086;BME280;34247;50.064;19.970;2023-02-10T04:40:50;100979.00;;;-1.50;63.30
21086;BME280;34247;50.064;19.970;2023-02-10T04:41:54;100979.03;;;-1.47;63.39
21086;BME280;34247;50.064;19.970;2023-02-10T04:43:04;100986.00;;;-1.42;63.23
21086;BME280;34247;50.064;19.970;2023-02-10T04:44:08;100993.00;;;-1.36;63.30
21086;BME280;34247;50.064;19.970;2023-02-10T04:45:13;100992.97;;;-1.41;63.24
21086;BME280;34247;50.064;19.970;2023-02-10T04:46:22;100999.09;;;-1.35;63.18
21086;BME280;34247;50.064;19.970;2023-02-10T04:47:31;100980.78;;;-1.45;63.18
21086;BME280;34247;50.064;19.970;2023-02-10T04:48:36;100990.34;;;-1.44;63.19
21086;BME280;34247;50.064;19.970;2023-02-10T04:49:43;100980.75;;;-1.46;63.32
21086;BME280;34247;50.064;19.970;2023-02-10T04:50:48;100995.56;;;-1.42;63.32
21086;BME280;34247;50.064;19.970;2023-02-10T04:51:56;100992.06;;;-1.46;63.10
21086;BME280;34247;50.064;19.970;2023-02-10T04:53:07;101013.84;;;-1.34;63.18
21086;BME280;34247;50.064;19.970;2023-02-10T04:54:15;101009.47;;;-1.39;63.16
21086;BME280;34247;50.064;19.970;2023-02-10T04:55:20;101014.72;;;-1.37;63.35
21086;BME280;34247;50.064;19.970;2023-02-10T04:56:24;101011.25;;;-1.34;63.30
21086;BME280;34247;50.064;19.970;2023-02-10T04:57:29;101003.44;;;-1.34;63.24
21086;BME280;34247;50.064;19.970;2023-02-10T04:58:35;100992.09;;;-1.44;63.39
21086;BME280;34247;50.064;19.970;2023-02-10T04:59:39;100983.34;;;-1.48;63.44
21086;BME280;34247;50.064;19.970;2023-02-10T05:00:55;101009.47;;;-1.42;63.68
21086;BME280;34247;50.064;19.970;2023-02-10T05:02:06;101011.25;;;-1.37;63.68
21086;BME280;34247;50.064;19.970;2023-02-10T05:03:15;101000.78;;;-1.39;63.58
21086;BME280;34247;50.064;19.970;2023-02-10T05:04:26;101009.47;;;-1.39;63.51
21086;BME280;34247;50.064;19.970;2023-02-10T05:05:45;100989.44;;;-1.47;63.61
21086;BME280;34247;50.064;19.970;2023-02-10T05:06:54;100996.44;;;-1.45;63.86
21086;BME280;34247;50.064;19.970;2023-02-10T05:08:04;101001.63;;;-1.43;63.70
21086;BME280;34247;50.064;19.970;2023-02-10T05:09:14;100999.00;;;-1.48;63.72
21086;BME280;34247;50.064;19.970;2023-02-10T05:10:24;100996.38;;;-1.51;63.51
21086;BME280;34247;50.064;19.970;2023-02-10T05:11:29;101004.19;;;-1.49;63.60
21086;BME280;34247;50.064;19.970;2023-02-10T05:12:38;100994.63;;;-1.50;63.47
21086;BME280;34247;50.064;19.970;2023-02-10T05:13:46;101012.94;;;-1.41;63.41
21086;BME280;34247;50.064;19.970;2023-02-10T05:14:51;101006.84;;;-1.45;63.34
21086;BME280;34247;50.064;19.970;2023-02-10T05:15:55;101004.25;;;-1.43;63.31
21086;BME280;34247;50.064;19.970;2023-02-10T05:16:59;101017.28;;;-1.42;63.35
21086;BME280;34247;50.064;19.970;2023-02-10T05:18:04;101012.06;;;-1.45;63.13
21086;BME280;34247;50.064;19.970;2023-02-10T05:19:09;101020.75;;;-1.41;63.25
21086;BME280;34247;50.064;19.970;2023-02-10T05:20:19;101011.13;;;-1.48;63.34
21086;BME280;34247;50.064;19.970;2023-02-10T05:21:23;101014.66;;;-1.45;63.30
21086;BME280;34247;50.064;19.970;2023-02-10T05:22:38;101012.88;;;-1.50;63.30
21086;BME280;34247;50.064;19.970;2023-02-10T05:23:45;101009.41;;;-1.51;63.40
21086;BME280;34247;50.064;19.970;2023-02-10T05:24:49;101021.56;;;-1.50;63.45
21086;BME280;34247;50.064;19.970;2023-02-10T05:25:59;101026.72;;;-1.53;63.75
21086;BME280;34247;50.064;19.970;2023-02-10T05:27:04;101022.38;;;-1.54;63.81
21086;BME280;34247;50.064;19.970;2023-02-10T05:28:08;101027.63;;;-1.51;63.62
21086;BME280;34247;50.064;19.970;2023-02-10T05:29:13;101020.63;;;-1.55;63.60
21086;BME280;34247;50.064;19.970;2023-02-10T05:30:22;101023.22;;;-1.58;63.63
21086;BME280;34247;50.064;19.970;2023-02-10T05:31:35;101024.97;;;-1.57;63.79
21086;BME280;34247;50.064;19.970;2023-02-10T05:32:41;101022.28;;;-1.66;63.97
21086;BME280;34247;50.064;19.970;2023-02-10T05:33:45;101020.50;;;-1.67;63.65
21086;BME280;34247;50.064;19.970;2023-02-10T05:34:54;101030.13;;;-1.63;63.52
21086;BME280;34247;50.064;19.970;2023-02-10T05:36:04;101034.47;;;-1.60;63.69
21086;BME280;34247;50.064;19.970;2023-02-10T05:37:09;101031.84;;;-1.62;63.35
21086;BME280;34247;50.064;19.970;2023-02-10T05:38:13;101037.94;;;-1.63;63.43
21086;BME280;34247;50.064;19.970;2023-02-10T05:39:21;101037.94;;;-1.63;63.76
21086;BME280;34247;50.064;19.970;2023-02-10T05:40:33;101037.06;;;-1.65;63.45
21086;BME280;34247;50.064;19.970;2023-02-10T05:41:44;101023.91;;;-1.74;63.65
21086;BME280;34247;50.064;19.970;2023-02-10T05:42:52;101030.88;;;-1.75;64.03
21086;BME280;34247;50.064;19.970;2023-02-10T05:44:02;101023.03;;;-1.79;64.08
21086;BME280;34247;50.064;19.970;2023-02-10T05:45:14;101014.16;;;-2.00;64.12
21086;BME280;34247;50.064;19.970;2023-02-10T05:46:22;101013.22;;;-2.06;64.60
21086;BME280;34247;50.064;19.970;2023-02-10T05:47:29;101029.75;;;-2.00;64.56
21086;BME280;34247;50.064;19.970;2023-02-10T05:48:36;101028.97;;;-1.94;64.62
21086;BME280;34247;50.064;19.970;2023-02-10T05:49:40;101018.53;;;-1.96;64.53
21086;BME280;34247;50.064;19.970;2023-02-10T05:50:52;101031.63;;;-1.88;64.51
21086;BME280;34247;50.064;19.970;2023-02-10T05:52:02;101017.63;;;-1.98;64.37
21086;BME280;34247;50.064;19.970;2023-02-10T05:53:10;101025.47;;;-1.95;64.44
21086;BME280;34247;50.064;19.970;2023-02-10T05:54:23;101028.88;;;-2.00;64.54
21086;BME280;34247;50.064;19.970;2023-02-10T05:55:28;101021.09;;;-1.99;64.77
21086;BME280;34247;50.064;19.970;2023-02-10T05:56:34;101026.34;;;-1.96;64.82
21086;BME280;34247;50.064;19.970;2023-02-10T05:57:42;101024.63;;;-1.93;64.41
21086;BME280;34247;50.064;19.970;2023-02-10T05:58:47;101031.50;;;-1.97;64.59
21086;BME280;34247;50.064;19.970;2023-02-10T05:59:55;101028.03;;;-1.98;64.30
21086;BME280;34247;50.064;19.970;2023-02-10T06:02:31;101047.25;;;-1.86;64.35
21086;BME280;34247;50.064;19.970;2023-02-10T06:03:39;101040.25;;;-1.90;64.37
21086;BME280;34247;50.064;19.970;2023-02-10T06:04:49;101044.59;;;-1.91;64.41
21086;BME280;34247;50.064;19.970;2023-02-10T06:05:53;101047.22;;;-1.89;64.55
21086;BME280;34247;50.064;19.970;2023-02-10T06:07:02;101037.63;;;-1.95;64.51
21086;BME280;34247;50.064;19.970;2023-02-10T06:08:07;101051.59;;;-1.87;64.64
21086;BME280;34247;50.064;19.970;2023-02-10T06:09:15;101034.19;;;-1.89;64.57
21086;BME280;34247;50.064;19.970;2023-02-10T06:10:21;101049.84;;;-1.88;64.70
21086;BME280;34247;50.064;19.970;2023-02-10T06:11:25;101032.44;;;-1.92;64.39
21086;BME280;34247;50.064;19.970;2023-02-10T06:12:30;101035.03;;;-1.93;64.45
21086;BME280;34247;50.064;19.970;2023-02-10T06:13:42;101051.53;;;-1.90;64.66
21086;BME280;34247;50.064;19.970;2023-02-10T06:14:49;101047.19;;;-1.91;64.58
21086;BME280;34247;50.064;19.970;2023-02-10T06:15:55;101040.25;;;-1.93;64.54
21086;BME280;34247;50.064;19.970;2023-02-10T06:17:10;101046.38;;;-1.87;64.68
21086;BME280;34247;50.064;19.970;2023-02-10T06:18:25;101047.25;;;-1.88;64.65
21086;BME280;34247;50.064;19.970;2023-02-10T06:19:40;101065.47;;;-1.88;64.56
21086;BME280;34247;50.064;19.970;2023-02-10T06:20:51;101064.59;;;-1.87;64.72
21086;BME280;34247;50.064;19.970;2023-02-10T06:21:55;101058.47;;;-1.93;65.04
21086;BME280;34247;50.064;19.970;2023-02-10T06:23:05;101051.53;;;-1.93;65.25
21086;BME280;34247;50.064;19.970;2023-02-10T06:24:11;101046.19;;;-2.04;65.34
21086;BME280;34247;50.064;19.970;2023-02-10T06:25:16;101051.47;;;-1.96;65.38
21086;BME280;34247;50.064;19.970;2023-02-10T06:26:20;101051.53;;;-1.88;65.10
21086;BME280;34247;50.064;19.970;2023-02-10T06:27:24;101059.41;;;-1.85;65.02
21086;BME280;34247;50.064;19.970;2023-02-10T06:28:29;101055.94;;;-1.86;65.03
21086;BME280;34247;50.064;19.970;2023-02-10T06:29:37;101066.28;;;-1.90;65.14
21086;BME280;34247;50.064;19.970;2023-02-10T06:30:44;101056.78;;;-1.87;65.05
21086;BME280;34247;50.064;19.970;2023-02-10T06:31:49;101052.47;;;-1.86;65.02
21086;BME280;34247;50.064;19.970;2023-02-10T06:32:54;101063.75;;;-1.83;65.03
21086;BME280;34247;50.064;19.970;2023-02-10T06:33:58;101054.22;;;-1.85;65.16
21086;BME280;34247;50.064;19.970;2023-02-10T06:35:04;101058.59;;;-1.80;65.47
21086;BME280;34247;50.064;19.970;2023-02-10T06:36:11;101057.75;;;-1.77;65.15
21086;BME280;34247;50.064;19.970;2023-02-10T06:37:16;101042.97;;;-1.80;64.96
21086;BME280;34247;50.064;19.970;2023-02-10T06:38:21;101061.28;;;-1.74;65.10
21086;BME280;34247;50.064;19.970;2023-02-10T06:39:33;101052.63;;;-1.71;65.24
21086;BME280;34247;50.064;19.970;2023-02-10T06:40:46;101056.03;;;-1.75;65.36
21086;BME280;34247;50.064;19.970;2023-02-10T06:41:50;101057.81;;;-1.71;65.47
21086;BME280;34247;50.064;19.970;2023-02-10T06:42:54;101057.81;;;-1.71;65.17
21086;BME280;34247;50.064;19.970;2023-02-10T06:43:59;101050.88;;;-1.69;65.27
21086;BME280;34247;50.064;19.970;2023-02-10T06:45:07;101038.72;;;-1.72;65.23
21086;BME280;34247;50.064;19.970;2023-02-10T06:46:12;101053.56;;;-1.63;65.10
21086;BME280;34247;50.064;19.970;2023-02-10T06:47:19;101058.78;;;-1.60;65.18
21086;BME280;34247;50.064;19.970;2023-02-10T06:48:23;101057.09;;;-1.58;65.06
21086;BME280;34247;50.064;19.970;2023-02-10T06:49:32;101051.00;;;-1.57;65.03
21086;BME280;34247;50.064;19.970;2023-02-10T06:50:37;101062.31;;;-1.55;64.95
21086;BME280;34247;50.064;19.970;2023-02-10T06:51:42;101054.50;;;-1.55;65.00
21086;BME280;34247;50.064;19.970;2023-02-10T06:52:50;101064.91;;;-1.53;65.16
21086;BME280;34247;50.064;19.970;2023-02-10T06:53:54;101064.03;;;-1.55;65.19
21086;BME280;34247;50.064;19.970;2023-02-10T06:54:58;101060.63;;;-1.50;65.26